sensor_id;sensor_type;location;lat;lon;timestamp;pressure;altitude;pressure_sealevel;temperature;humidity
6144;BME280;3103;49.492;8.474;2022-11-21T00:03:43;99596.72;;;7.88;83.72
6144;BME280;3103;49.492;8.474;2022-11-21T00:06:09;99602.78;;;7.84;83.81
6144;BME280;3103;49.492;8.474;2022-11-21T00:08:36;99589.72;;;7.87;83.53
6144;BME280;3103;49.492;8.474;2022-11-21T00:11:03;99594.19;;;7.82;83.80
6144;BME280;3103;49.492;8.474;2022-11-21T00:13:29;99594.50;;;7.85;84.65
6144;BME280;3103;49.492;8.474;2022-11-21T00:16:02;99597.59;;;7.77;86.42
6144;BME280;3103;49.492;8.474;2022-11-21T00:18:29;99603.72;;;7.61;87.78
6144;BME280;3103;49.492;8.474;2022-11-21T00:20:55;99606.88;;;7.58;89.12
6144;BME280;3103;49.492;8.474;2022-11-21T00:23:22;99602.00;;;7.55;89.97
6144;BME280;3103;49.492;8.474;2022-11-21T00:25:53;99606.44;;;7.49;90.08
6144;BME280;3103;49.492;8.474;2022-11-21T00:28:20;99601.59;;;7.46;91.05
6144;BME280;3103;49.492;8.474;2022-11-21T00:30:46;99598.69;;;7.48;90.99
6144;BME280;3103;49.492;8.474;2022-11-21T00:33:13;99612.84;;;7.48;91.30
6144;BME280;3103;49.492;8.474;2022-11-21T00:35:40;99615.78;;;7.47;90.98
6144;BME280;3103;49.492;8.474;2022-11-21T00:38:06;99616.09;;;7.50;91.22
6144;BME280;3103;49.492;8.474;2022-11-21T00:40:33;99617.97;;;7.50;92.02
6144;BME280;3103;49.492;8.474;2022-11-21T00:43:00;99610.22;;;7.65;90.80
6144;BME280;3103;49.492;8.474;2022-11-21T00:45:26;99610.69;;;7.62;90.93
6144;BME280;3103;49.492;8.474;2022-11-21T00:47:54;99603.72;;;7.61;90.88
6144;BME280;3103;49.492;8.474;2022-11-21T00:50:20;99603.88;;;7.54;91.29
6144;BME280;3103;49.492;8.474;2022-11-21T00:52:47;99606.78;;;7.24;92.74
6144;BME280;3103;49.492;8.474;2022-11-21T00:55:14;99606.81;;;7.41;93.82
6144;BME280;3103;49.492;8.474;2022-11-21T00:57:41;99603.19;;;7.76;90.47
6144;BME280;3103;49.492;8.474;2022-11-21T01:00:08;99599.09;;;7.73;90.65
6144;BME280;3103;49.492;8.474;2022-11-21T01:02:35;99595.94;;;7.59;90.78
6144;BME280;3103;49.492;8.474;2022-11-21T01:05:01;99582.56;;;7.31;92.22
6144;BME280;3103;49.492;8.474;2022-11-21T01:07:29;99586.03;;;7.60;91.90
6144;BME280;3103;49.492;8.474;2022-11-21T01:09:55;99578.09;;;7.48;92.19
6144;BME280;3103;49.492;8.474;2022-11-21T01:12:22;99576.91;;;7.27;93.27
6144;BME280;3103;49.492;8.474;2022-11-21T01:14:49;99571.06;;;7.30;93.19
6144;BME280;3103;49.492;8.474;2022-11-21T01:17:16;99572.56;;;7.38;93.66
6144;BME280;3103;49.492;8.474;2022-11-21T01:19:43;99571.78;;;7.54;91.97
6144;BME280;3103;49.492;8.474;2022-11-21T01:22:10;99573.28;;;7.62;91.80
6144;BME280;3103;49.492;8.474;2022-11-21T01:24:36;99573.41;;;7.55;92.68
6144;BME280;3103;49.492;8.474;2022-11-21T01:27:03;99569.78;;;7.61;92.21
6144;BME280;3103;49.492;8.474;2022-11-21T01:29:30;99566.94;;;7.51;92.84
6144;BME280;3103;49.492;8.474;2022-11-21T01:31:56;99570.50;;;7.57;92.83
6144;BME280;3103;49.492;8.474;2022-11-21T01:34:23;99560.44;;;7.47;91.85
6144;BME280;3103;49.492;8.474;2022-11-21T01:36:50;99557.72;;;7.76;90.19
6144;BME280;3103;49.492;8.474;2022-11-21T01:39:17;99551.22;;;7.71;89.66
6144;BME280;3103;49.492;8.474;2022-11-21T01:41:44;99563.84;;;7.59;89.96
6144;BME280;3103;49.492;8.474;2022-11-21T01:44:23;99557.47;;;7.60;89.84
6144;BME280;3103;49.492;8.474;2022-11-21T01:46:51;99555.50;;;7.56;90.08
6144;BME280;3103;49.492;8.474;2022-11-21T01:49:19;99555.53;;;7.27;91.26
6144;BME280;3103;49.492;8.474;2022-11-21T01:51:55;99560.97;;;7.04;92.65
6144;BME280;3103;49.492;8.474;2022-11-21T01:54:29;99565.03;;;7.06;93.42
6144;BME280;3103;49.492;8.474;2022-11-21T01:57:05;99564.06;;;7.12;94.12
6144;BME280;3103;49.492;8.474;2022-11-21T01:59:41;99567.13;;;7.78;89.11
6144;BME280;3103;49.492;8.474;2022-11-21T02:02:12;99557.25;;;7.33;90.49
6144;BME280;3103;49.492;8.474;2022-11-21T02:04:41;99560.22;;;7.65;89.42
6144;BME280;3103;49.492;8.474;2022-11-21T02:07:10;99549.84;;;7.24;91.44
6144;BME280;3103;49.492;8.474;2022-11-21T02:09:40;99551.72;;;7.68;89.17
6144;BME280;3103;49.492;8.474;2022-11-21T02:12:12;99545.91;;;7.26;91.40
6144;BME280;3103;49.492;8.474;2022-11-21T02:15:00;99550.34;;;7.66;89.19
6144;BME280;3103;49.492;8.474;2022-11-21T02:17:29;99550.41;;;7.54;89.71
6144;BME280;3103;49.492;8.474;2022-11-21T02:20:07;99541.44;;;7.60;88.24
6144;BME280;3103;49.492;8.474;2022-11-21T02:25:34;99544.00;;;7.55;88.38
6144;BME280;3103;49.492;8.474;2022-11-21T02:28:04;99535.97;;;7.55;87.54
6144;BME280;3103;49.492;8.474;2022-11-21T02:30:34;99540.53;;;7.55;87.12
6144;BME280;3103;49.492;8.474;2022-11-21T02:33:02;99537.59;;;7.56;86.82
6144;BME280;3103;49.492;8.474;2022-11-21T02:35:29;99534.53;;;7.48;86.87
6144;BME280;3103;49.492;8.474;2022-11-21T02:40:46;99539.72;;;7.54;86.56
6144;BME280;3103;49.492;8.474;2022-11-21T02:43:24;99541.81;;;7.52;85.98
6144;BME280;3103;49.492;8.474;2022-11-21T02:45:53;99542.63;;;7.53;87.01
6144;BME280;3103;49.492;8.474;2022-11-21T02:48:20;99542.00;;;7.62;86.98
6144;BME280;3103;49.492;8.474;2022-11-21T02:50:47;99538.56;;;7.50;87.35
6144;BME280;3103;49.492;8.474;2022-11-21T02:53:16;99539.16;;;7.24;88.49
6144;BME280;3103;49.492;8.474;2022-11-21T02:55:44;99541.69;;;7.30;88.49
6144;BME280;3103;49.492;8.474;2022-11-21T02:58:11;99529.63;;;7.28;89.47
6144;BME280;3103;49.492;8.474;2022-11-21T03:00:39;99534.47;;;7.31;89.17
6144;BME280;3103;49.492;8.474;2022-11-21T03:03:07;99534.72;;;7.29;88.76
6144;BME280;3103;49.492;8.474;2022-11-21T03:05:34;99536.41;;;7.19;88.26
6144;BME280;3103;49.492;8.474;2022-11-21T03:08:02;99526.09;;;7.39;87.80
6144;BME280;3103;49.492;8.474;2022-11-21T03:10:29;99523.59;;;7.49;86.86
6144;BME280;3103;49.492;8.474;2022-11-21T03:12:55;99527.22;;;7.43;86.88
6144;BME280;3103;49.492;8.474;2022-11-21T03:15:33;99526.28;;;7.49;86.65
6144;BME280;3103;49.492;8.474;2022-11-21T03:18:01;99523.28;;;7.62;86.32
6144;BME280;3103;49.492;8.474;2022-11-21T03:20:33;99528.47;;;7.69;85.33
6144;BME280;3103;49.492;8.474;2022-11-21T03:23:00;99531.22;;;7.74;85.10
6144;BME280;3103;49.492;8.474;2022-11-21T03:25:27;99531.63;;;7.66;85.81
6144;BME280;3103;49.492;8.474;2022-11-21T03:27:54;99524.25;;;7.56;85.83
6144;BME280;3103;49.492;8.474;2022-11-21T03:30:23;99524.91;;;7.63;86.60
6144;BME280;3103;49.492;8.474;2022-11-21T03:32:52;99528.97;;;7.66;86.18
6144;BME280;3103;49.492;8.474;2022-11-21T03:35:20;99532.81;;;7.58;86.17
6144;BME280;3103;49.492;8.474;2022-11-21T03:37:47;99525.41;;;7.60;86.70
6144;BME280;3103;49.492;8.474;2022-11-21T03:40:14;99528.06;;;7.60;86.40
6144;BME280;3103;49.492;8.474;2022-11-21T03:42:41;99531.56;;;7.61;86.71
6144;BME280;3103;49.492;8.474;2022-11-21T03:45:08;99533.06;;;7.57;86.67
6144;BME280;3103;49.492;8.474;2022-11-21T03:47:34;99533.22;;;7.50;87.43
6144;BME280;3103;49.492;8.474;2022-11-21T03:50:01;99538.28;;;7.63;87.75
6144;BME280;3103;49.492;8.474;2022-11-21T03:52:29;99535.13;;;7.66;86.51
6144;BME280;3103;49.492;8.474;2022-11-21T03:54:55;99538.53;;;7.62;87.30
6144;BME280;3103;49.492;8.474;2022-11-21T03:57:22;99539.56;;;7.61;87.01
6144;BME280;3103;49.492;8.474;2022-11-21T03:59:49;99539.66;;;7.66;87.33
6144;BME280;3103;49.492;8.474;2022-11-21T04:02:15;99547.34;;;7.62;86.75
6144;BME280;3103;49.492;8.474;2022-11-21T04:04:42;99545.25;;;7.64;87.25
6144;BME280;3103;49.492;8.474;2022-11-21T04:07:09;99542.06;;;7.67;86.84
6144;BME280;3103;49.492;8.474;2022-11-21T04:09:36;99526.41;;;7.59;87.11
6144;BME280;3103;49.492;8.474;2022-11-21T04:12:02;99521.56;;;7.56;87.09
6144;BME280;3103;49.492;8.474;2022-11-21T04:14:33;99521.72;;;7.50;86.84
6144;BME280;3103;49.492;8.474;2022-11-21T04:17:00;99519.38;;;7.53;87.26
6144;BME280;3103;49.492;8.474;2022-11-21T04:19:27;99519.63;;;7.52;87.27
6144;BME280;3103;49.492;8.474;2022-11-21T04:21:54;99522.84;;;7.37;87.36
6144;BME280;3103;49.492;8.474;2022-11-21T04:24:21;99518.88;;;7.39;87.08
6144;BME280;3103;49.492;8.474;2022-11-21T04:26:47;99524.78;;;7.41;87.10
6144;BME280;3103;49.492;8.474;2022-11-21T04:29:14;99521.88;;;7.43;87.37
6144;BME280;3103;49.492;8.474;2022-11-21T04:31:41;99529.25;;;7.36;86.98
6144;BME280;3103;49.492;8.474;2022-11-21T04:34:08;99524.53;;;7.43;86.64
6144;BME280;3103;49.492;8.474;2022-11-21T04:36:34;99529.06;;;7.42;85.97
6144;BME280;3103;49.492;8.474;2022-11-21T04:39:02;99525.22;;;7.50;84.24
6144;BME280;3103;49.492;8.474;2022-11-21T04:41:29;99527.09;;;7.50;83.62
6144;BME280;3103;49.492;8.474;2022-11-21T04:43:56;99526.66;;;7.58;82.76
6144;BME280;3103;49.492;8.474;2022-11-21T04:46:22;99514.22;;;7.63;82.43
6144;BME280;3103;49.492;8.474;2022-11-21T04:48:49;99515.50;;;7.61;82.47
6144;BME280;3103;49.492;8.474;2022-11-21T04:51:16;99518.41;;;7.59;81.89
6144;BME280;3103;49.492;8.474;2022-11-21T04:53:43;99519.22;;;7.60;81.70
6144;BME280;3103;49.492;8.474;2022-11-21T04:56:10;99522.38;;;7.73;81.28
6144;BME280;3103;49.492;8.474;2022-11-21T04:58:42;99529.19;;;7.64;81.82
6144;BME280;3103;49.492;8.474;2022-11-21T05:01:10;99523.59;;;7.66;81.09
6144;BME280;3103;49.492;8.474;2022-11-21T05:03:37;99514.59;;;7.72;81.58
6144;BME280;3103;49.492;8.474;2022-11-21T05:06:04;99514.53;;;7.84;81.80
6144;BME280;3103;49.492;8.474;2022-11-21T05:08:31;99512.66;;;7.84;82.11
6144;BME280;3103;49.492;8.474;2022-11-21T05:10:58;99512.19;;;7.70;82.58
6144;BME280;3103;49.492;8.474;2022-11-21T05:13:43;99516.72;;;7.70;82.34
6144;BME280;3103;49.492;8.474;2022-11-21T05:16:10;99528.06;;;7.60;82.92
6144;BME280;3103;49.492;8.474;2022-11-21T05:18:37;99525.41;;;7.77;82.67
6144;BME280;3103;49.492;8.474;2022-11-21T05:21:04;99533.41;;;7.77;82.79
6144;BME280;3103;49.492;8.474;2022-11-21T05:23:31;99521.34;;;7.74;82.49
6144;BME280;3103;49.492;8.474;2022-11-21T05:25:57;99527.25;;;7.77;82.18
6144;BME280;3103;49.492;8.474;2022-11-21T05:28:24;99524.66;;;7.82;82.59
6144;BME280;3103;49.492;8.474;2022-11-21T05:30:51;99518.91;;;7.73;83.01
6144;BME280;3103;49.492;8.474;2022-11-21T05:33:18;99520.31;;;7.76;83.45
6144;BME280;3103;49.492;8.474;2022-11-21T05:35:45;99522.47;;;7.79;82.71
6144;BME280;3103;49.492;8.474;2022-11-21T05:38:11;99518.91;;;7.73;83.02
6144;BME280;3103;49.492;8.474;2022-11-21T05:40:38;99526.09;;;7.72;82.82
6144;BME280;3103;49.492;8.474;2022-11-21T05:43:05;99518.81;;;7.68;83.23
6144;BME280;3103;49.492;8.474;2022-11-21T05:45:51;99522.56;;;7.84;83.23
6144;BME280;3103;49.492;8.474;2022-11-21T05:48:18;99519.97;;;7.89;82.72
6144;BME280;3103;49.492;8.474;2022-11-21T05:50:48;99517.53;;;7.87;82.25
6144;BME280;3103;49.492;8.474;2022-11-21T05:53:15;99525.41;;;7.77;82.67
6144;BME280;3103;49.492;8.474;2022-11-21T05:55:43;99524.25;;;7.73;82.88
6144;BME280;3103;49.492;8.474;2022-11-21T05:58:10;99520.13;;;7.82;82.53
6144;BME280;3103;49.492;8.474;2022-11-21T06:00:37;99510.16;;;7.78;82.74
6144;BME280;3103;49.492;8.474;2022-11-21T06:03:04;99519.31;;;7.65;82.31
6144;BME280;3103;49.492;8.474;2022-11-21T06:05:50;99510.16;;;7.61;83.16
6144;BME280;3103;49.492;8.474;2022-11-21T06:08:17;99520.94;;;7.66;83.16
6144;BME280;3103;49.492;8.474;2022-11-21T06:10:44;99525.97;;;7.62;83.69
6144;BME280;3103;49.492;8.474;2022-11-21T06:13:11;99522.72;;;7.94;82.03
6144;BME280;3103;49.492;8.474;2022-11-21T06:15:57;99522.31;;;7.68;81.67
6144;BME280;3103;49.492;8.474;2022-11-21T06:18:25;99516.00;;;7.74;81.99
6144;BME280;3103;49.492;8.474;2022-11-21T06:20:52;99529.84;;;7.71;81.56
6144;BME280;3103;49.492;8.474;2022-11-21T06:23:19;99532.56;;;7.60;81.13
6144;BME280;3103;49.492;8.474;2022-11-21T06:25:46;99521.81;;;7.71;80.94
6144;BME280;3103;49.492;8.474;2022-11-21T06:28:13;99533.88;;;7.74;80.91
6144;BME280;3103;49.492;8.474;2022-11-21T06:30:39;99535.28;;;7.77;80.20
6144;BME280;3103;49.492;8.474;2022-11-21T06:33:06;99527.59;;;7.80;80.83
6144;BME280;3103;49.492;8.474;2022-11-21T06:35:36;99531.00;;;7.76;81.03
6144;BME280;3103;49.492;8.474;2022-11-21T06:38:04;99531.06;;;7.81;79.54
6144;BME280;3103;49.492;8.474;2022-11-21T06:40:31;99532.03;;;7.91;79.50
6144;BME280;3103;49.492;8.474;2022-11-21T06:42:57;99534.16;;;7.89;80.13
6144;BME280;3103;49.492;8.474;2022-11-21T06:45:24;99545.56;;;7.85;80.17
6144;BME280;3103;49.492;8.474;2022-11-21T06:47:51;99537.78;;;7.83;81.15
6144;BME280;3103;49.492;8.474;2022-11-21T06:50:18;99536.47;;;7.86;80.80
6144;BME280;3103;49.492;8.474;2022-11-21T06:52:45;99528.47;;;7.86;80.63
6144;BME280;3103;49.492;8.474;2022-11-21T06:55:12;99530.66;;;7.89;80.56
6144;BME280;3103;49.492;8.474;2022-11-21T06:57:39;99527.09;;;7.83;80.34
6144;BME280;3103;49.492;8.474;2022-11-21T07:00:06;99540.72;;;7.82;80.30
6144;BME280;3103;49.492;8.474;2022-11-21T07:02:33;99538.84;;;7.82;80.36
6144;BME280;3103;49.492;8.474;2022-11-21T07:05:00;99536.97;;;7.83;80.19
6144;BME280;3103;49.492;8.474;2022-11-21T07:07:29;99534.88;;;7.85;81.10
6144;BME280;3103;49.492;8.474;2022-11-21T07:09:55;99533.41;;;7.94;79.35
6144;BME280;3103;49.492;8.474;2022-11-21T07:12:22;99539.81;;;7.76;80.10
6144;BME280;3103;49.492;8.474;2022-11-21T07:15:08;99539.09;;;7.64;80.99
6144;BME280;3103;49.492;8.474;2022-11-21T07:17:35;99547.84;;;7.76;81.60
6144;BME280;3103;49.492;8.474;2022-11-21T07:20:02;99548.09;;;7.91;80.31
6144;BME280;3103;49.492;8.474;2022-11-21T07:22:29;99545.91;;;7.88;79.80
6144;BME280;3103;49.492;8.474;2022-11-21T07:24:56;99544.44;;;7.81;79.58
6144;BME280;3103;49.492;8.474;2022-11-21T07:27:22;99540.72;;;7.82;79.52
6144;BME280;3103;49.492;8.474;2022-11-21T07:29:49;99552.38;;;7.76;78.94
6144;BME280;3103;49.492;8.474;2022-11-21T07:32:17;99557.00;;;7.80;79.01
6144;BME280;3103;49.492;8.474;2022-11-21T07:34:44;99556.13;;;7.74;78.31
6144;BME280;3103;49.492;8.474;2022-11-21T07:37:10;99557.56;;;7.82;78.76
6144;BME280;3103;49.492;8.474;2022-11-21T07:39:37;99549.94;;;7.74;78.53
6144;BME280;3103;49.492;8.474;2022-11-21T07:42:07;99554.63;;;7.67;79.22
6144;BME280;3103;49.492;8.474;2022-11-21T07:44:35;99564.84;;;7.87;78.46
6144;BME280;3103;49.492;8.474;2022-11-21T07:47:01;99561.53;;;7.80;78.40
6144;BME280;3103;49.492;8.474;2022-11-21T07:49:28;99571.91;;;7.76;78.74
6144;BME280;3103;49.492;8.474;2022-11-21T07:51:55;99579.03;;;7.42;78.10
6144;BME280;3103;49.492;8.474;2022-11-21T07:54:22;99574.97;;;7.68;78.89
6144;BME280;3103;49.492;8.474;2022-11-21T07:56:50;99571.25;;;7.69;77.39
6144;BME280;3103;49.492;8.474;2022-11-21T07:59:16;99569.81;;;7.78;77.99
6144;BME280;3103;49.492;8.474;2022-11-21T08:01:44;99575.47;;;7.82;76.92
6144;BME280;3103;49.492;8.474;2022-11-21T08:04:11;99577.88;;;7.66;76.29
6144;BME280;3103;49.492;8.474;2022-11-21T08:06:38;99570.19;;;7.70;76.01
6144;BME280;3103;49.492;8.474;2022-11-21T08:09:04;99572.47;;;7.78;75.57
6144;BME280;3103;49.492;8.474;2022-11-21T08:11:31;99572.97;;;7.75;75.94
6144;BME280;3103;49.492;8.474;2022-11-21T08:13:58;99569.81;;;7.78;75.22
6144;BME280;3103;49.492;8.474;2022-11-21T08:16:25;99573.13;;;8.02;74.29
6144;BME280;3103;49.492;8.474;2022-11-21T08:18:53;99575.66;;;7.92;75.12
6144;BME280;3103;49.492;8.474;2022-11-21T08:21:20;99577.06;;;7.66;74.84
6144;BME280;3103;49.492;8.474;2022-11-21T08:23:47;99570.28;;;7.75;74.89
6144;BME280;3103;49.492;8.474;2022-11-21T08:26:14;99563.91;;;7.93;74.17
6144;BME280;3103;49.492;8.474;2022-11-21T08:28:40;99569.56;;;7.80;73.09
6144;BME280;3103;49.492;8.474;2022-11-21T08:31:07;99569.97;;;7.88;73.60
6144;BME280;3103;49.492;8.474;2022-11-21T08:33:34;99571.44;;;7.96;73.63
6144;BME280;3103;49.492;8.474;2022-11-21T08:36:05;99564.94;;;7.92;73.04
6144;BME280;3103;49.492;8.474;2022-11-21T08:38:32;99561.53;;;7.96;73.48
6144;BME280;3103;49.492;8.474;2022-11-21T08:40:59;99568.44;;;7.92;73.06
6144;BME280;3103;49.492;8.474;2022-11-21T08:43:44;99562.66;;;7.84;73.90
6144;BME280;3103;49.492;8.474;2022-11-21T08:46:11;99562.59;;;7.95;73.93
6144;BME280;3103;49.492;8.474;2022-11-21T08:48:37;99553.69;;;8.07;73.58
6144;BME280;3103;49.492;8.474;2022-11-21T08:51:04;99554.97;;;8.38;73.21
6144;BME280;3103;49.492;8.474;2022-11-21T08:53:31;99558.44;;;8.38;71.27
6144;BME280;3103;49.492;8.474;2022-11-21T08:55:58;99548.56;;;8.39;71.31
6144;BME280;3103;49.492;8.474;2022-11-21T08:58:30;99552.84;;;8.40;69.74
6144;BME280;3103;49.492;8.474;2022-11-21T09:00:58;99553.19;;;8.10;70.84
6144;BME280;3103;49.492;8.474;2022-11-21T09:03:25;99553.97;;;8.44;69.63
6144;BME280;3103;49.492;8.474;2022-11-21T09:05:58;99555.47;;;8.56;69.69
6144;BME280;3103;49.492;8.474;2022-11-21T09:08:25;99541.63;;;8.59;69.71
6144;BME280;3103;49.492;8.474;2022-11-21T09:10:51;99556.38;;;8.62;68.44
6144;BME280;3103;49.492;8.474;2022-11-21T09:13:18;99550.66;;;8.97;67.41
6144;BME280;3103;49.492;8.474;2022-11-21T09:15:45;99546.56;;;8.89;66.72
6144;BME280;3103;49.492;8.474;2022-11-21T09:18:34;99543.34;;;8.71;67.07
6144;BME280;3103;49.492;8.474;2022-11-21T09:21:01;99542.19;;;9.05;67.69
6144;BME280;3103;49.492;8.474;2022-11-21T09:23:28;99541.16;;;9.11;66.56
6144;BME280;3103;49.492;8.474;2022-11-21T09:25:55;99538.78;;;9.42;65.87
6144;BME280;3103;49.492;8.474;2022-11-21T09:28:21;99533.75;;;9.45;64.43
6144;BME280;3103;49.492;8.474;2022-11-21T09:30:48;99535.47;;;9.30;65.51
6144;BME280;3103;49.492;8.474;2022-11-21T09:33:15;99529.34;;;9.07;65.46
6144;BME280;3103;49.492;8.474;2022-11-21T09:35:44;99541.19;;;8.89;67.05
6144;BME280;3103;49.492;8.474;2022-11-21T09:38:11;99535.00;;;9.11;66.21
6144;BME280;3103;49.492;8.474;2022-11-21T09:40:43;99530.59;;;9.27;65.66
6144;BME280;3103;49.492;8.474;2022-11-21T09:43:28;99527.59;;;8.96;65.71
6144;BME280;3103;49.492;8.474;2022-11-21T09:46:08;99514.31;;;8.84;67.01
6144;BME280;3103;49.492;8.474;2022-11-21T09:48:45;99507.13;;;9.12;66.74
6144;BME280;3103;49.492;8.474;2022-11-21T09:51:15;99512.25;;;9.40;65.60
6144;BME280;3103;49.492;8.474;2022-11-21T09:56:38;99507.34;;;9.32;65.77
6144;BME280;3103;49.492;8.474;2022-11-21T09:59:28;99513.81;;;9.36;65.43
6144;BME280;3103;49.492;8.474;2022-11-21T10:01:58;99510.72;;;9.22;65.80
6144;BME280;3103;49.492;8.474;2022-11-21T10:04:25;99504.59;;;9.27;66.27
6144;BME280;3103;49.492;8.474;2022-11-21T10:07:07;99498.91;;;9.18;65.74
6144;BME280;3103;49.492;8.474;2022-11-21T10:18:10;99474.72;;;9.72;63.76
6144;BME280;3103;49.492;8.474;2022-11-21T10:23:41;99485.13;;;11.41;58.15
6144;BME280;3103;49.492;8.474;2022-11-21T10:26:16;99475.44;;;11.50;56.83
6144;BME280;3103;49.492;8.474;2022-11-21T10:28:55;99473.56;;;11.51;57.59
6144;BME280;3103;49.492;8.474;2022-11-21T10:31:26;99471.16;;;11.85;55.96
6144;BME280;3103;49.492;8.474;2022-11-21T10:33:59;99461.44;;;11.18;57.13
6144;BME280;3103;49.492;8.474;2022-11-21T10:36:33;99460.06;;;11.05;58.37
6144;BME280;3103;49.492;8.474;2022-11-21T10:39:06;99458.59;;;10.67;59.02
6144;BME280;3103;49.492;8.474;2022-11-21T10:44:22;99446.75;;;10.00;62.33
6144;BME280;3103;49.492;8.474;2022-11-21T10:47:20;99441.50;;;9.83;62.83
6144;BME280;3103;49.492;8.474;2022-11-21T10:52:48;99427.16;;;10.00;62.97
6144;BME280;3103;49.492;8.474;2022-11-21T10:55:16;99418.38;;;10.20;62.75
6144;BME280;3103;49.492;8.474;2022-11-21T10:57:48;99409.88;;;10.33;61.73
6144;BME280;3103;49.492;8.474;2022-11-21T11:00:26;99410.44;;;10.35;61.32
6144;BME280;3103;49.492;8.474;2022-11-21T11:05:27;99406.13;;;10.39;61.26
6144;BME280;3103;49.492;8.474;2022-11-21T11:08:13;99397.31;;;10.49;61.02
6144;BME280;3103;49.492;8.474;2022-11-21T11:11:00;99400.03;;;10.64;60.77
6144;BME280;3103;49.492;8.474;2022-11-21T11:13:28;99396.50;;;10.43;61.52
6144;BME280;3103;49.492;8.474;2022-11-21T11:16:18;99383.88;;;10.44;61.64
6144;BME280;3103;49.492;8.474;2022-11-21T11:18:54;99378.03;;;10.62;60.38
6144;BME280;3103;49.492;8.474;2022-11-21T11:21:42;99372.88;;;10.50;59.76
6144;BME280;3103;49.492;8.474;2022-11-21T11:29:18;99342.03;;;9.95;62.12
6144;BME280;3103;49.492;8.474;2022-11-21T11:34:18;99331.53;;;10.51;60.94
6144;BME280;3103;49.492;8.474;2022-11-21T11:36:59;99332.09;;;10.58;60.48
6144;BME280;3103;49.492;8.474;2022-11-21T11:39:56;99334.78;;;10.63;60.52
6144;BME280;3103;49.492;8.474;2022-11-21T11:45:50;99323.22;;;10.58;60.11
6144;BME280;3103;49.492;8.474;2022-11-21T11:48:42;99322.38;;;10.37;61.04
6144;BME280;3103;49.492;8.474;2022-11-21T11:51:36;99314.84;;;10.34;60.22
6144;BME280;3103;49.492;8.474;2022-11-21T11:54:14;99297.13;;;10.38;60.03
6144;BME280;3103;49.492;8.474;2022-11-21T11:56:43;99300.88;;;10.32;60.38
6144;BME280;3103;49.492;8.474;2022-11-21T12:01:58;99293.91;;;10.31;60.00
6144;BME280;3103;49.492;8.474;2022-11-21T12:04:28;99298.91;;;10.07;60.31
6144;BME280;3103;49.492;8.474;2022-11-21T12:07:04;99299.47;;;10.19;60.45
6144;BME280;3103;49.492;8.474;2022-11-21T12:12:41;99286.81;;;10.04;60.60
6144;BME280;3103;49.492;8.474;2022-11-21T12:20:57;99270.50;;;10.21;61.77
6144;BME280;3103;49.492;8.474;2022-11-21T12:23:50;99272.38;;;10.21;62.05
6144;BME280;3103;49.492;8.474;2022-11-21T12:29:49;99260.19;;;9.93;63.55
6144;BME280;3103;49.492;8.474;2022-11-21T12:32:41;99265.56;;;9.93;63.11
6144;BME280;3103;49.492;8.474;2022-11-21T12:41:17;99252.41;;;9.86;64.26
6144;BME280;3103;49.492;8.474;2022-11-21T12:50:26;99219.13;;;9.77;62.03
6144;BME280;3103;49.492;8.474;2022-11-21T12:53:26;99210.81;;;9.83;62.47
6144;BME280;3103;49.492;8.474;2022-11-21T12:56:27;99215.66;;;9.87;62.49
6144;BME280;3103;49.492;8.474;2022-11-21T12:58:59;99215.09;;;9.85;62.76
6144;BME280;3103;49.492;8.474;2022-11-21T13:01:38;99200.06;;;9.73;62.90
6144;BME280;3103;49.492;8.474;2022-11-21T13:04:14;99194.97;;;9.77;62.70
6144;BME280;3103;49.492;8.474;2022-11-21T13:06:44;99187.50;;;9.89;62.49
6144;BME280;3103;49.492;8.474;2022-11-21T13:09:19;99182.66;;;9.91;63.28
6144;BME280;3103;49.492;8.474;2022-11-21T13:12:02;99173.84;;;10.06;63.53
6144;BME280;3103;49.492;8.474;2022-11-21T13:22:53;99154.75;;;9.97;64.94
6144;BME280;3103;49.492;8.474;2022-11-21T13:25:40;99144.91;;;10.28;64.17
6144;BME280;3103;49.492;8.474;2022-11-21T13:30:55;99145.97;;;10.32;63.55
6144;BME280;3103;49.492;8.474;2022-11-21T13:36:11;99142.72;;;10.40;63.14
6144;BME280;3103;49.492;8.474;2022-11-21T13:47:46;99127.47;;;10.31;61.12
6144;BME280;3103;49.492;8.474;2022-11-21T13:55:34;99100.03;;;10.49;61.32
6144;BME280;3103;49.492;8.474;2022-11-21T14:08:39;99073.22;;;10.34;61.76
6144;BME280;3103;49.492;8.474;2022-11-21T14:11:20;99074.50;;;10.62;60.34
6144;BME280;3103;49.492;8.474;2022-11-21T14:13:48;99067.53;;;10.51;60.22
6144;BME280;3103;49.492;8.474;2022-11-21T14:16:35;99068.38;;;10.46;60.25
6144;BME280;3103;49.492;8.474;2022-11-21T14:19:12;99055.50;;;10.43;60.33
6144;BME280;3103;49.492;8.474;2022-11-21T14:21:44;99057.88;;;10.39;60.89
6144;BME280;3103;49.492;8.474;2022-11-21T14:24:17;99053.34;;;10.35;60.74
6144;BME280;3103;49.492;8.474;2022-11-21T14:26:51;99056.31;;;10.28;61.30
6144;BME280;3103;49.492;8.474;2022-11-21T14:31:52;99060.84;;;10.12;62.92
6144;BME280;3103;49.492;8.474;2022-11-21T14:34:26;99052.81;;;10.07;63.40
6144;BME280;3103;49.492;8.474;2022-11-21T14:36:57;99049.84;;;9.94;64.69
6144;BME280;3103;49.492;8.474;2022-11-21T14:39:26;99048.53;;;9.91;64.85
6144;BME280;3103;49.492;8.474;2022-11-21T14:42:11;99041.00;;;10.34;64.17
6144;BME280;3103;49.492;8.474;2022-11-21T14:44:40;99038.03;;;10.20;65.21
6144;BME280;3103;49.492;8.474;2022-11-21T14:47:19;99023.31;;;10.02;66.75
6144;BME280;3103;49.492;8.474;2022-11-21T14:49:54;99018.47;;;9.89;67.87
6144;BME280;3103;49.492;8.474;2022-11-21T14:52:27;99017.13;;;9.81;68.20
6144;BME280;3103;49.492;8.474;2022-11-21T14:55:00;99017.13;;;9.92;68.61
6144;BME280;3103;49.492;8.474;2022-11-21T14:57:46;98995.13;;;9.90;68.56
6144;BME280;3103;49.492;8.474;2022-11-21T15:00:15;98991.66;;;9.69;68.29
6144;BME280;3103;49.492;8.474;2022-11-21T15:03:02;98979.84;;;9.80;68.28
6144;BME280;3103;49.492;8.474;2022-11-21T15:05:31;98966.97;;;9.77;68.57
6144;BME280;3103;49.492;8.474;2022-11-21T15:08:22;98952.50;;;9.68;68.99
6144;BME280;3103;49.492;8.474;2022-11-21T15:11:09;98957.59;;;9.44;68.72
6144;BME280;3103;49.492;8.474;2022-11-21T15:13:37;98953.84;;;9.55;68.55
6144;BME280;3103;49.492;8.474;2022-11-21T15:16:25;98943.13;;;9.60;69.31
6144;BME280;3103;49.492;8.474;2022-11-21T15:18:52;98940.16;;;9.77;68.94
6144;BME280;3103;49.492;8.474;2022-11-21T15:21:19;98926.50;;;9.73;69.34
6144;BME280;3103;49.492;8.474;2022-11-21T15:23:45;98917.03;;;9.96;68.89
6144;BME280;3103;49.492;8.474;2022-11-21T15:26:32;98907.94;;;9.82;69.29
6144;BME280;3103;49.492;8.474;2022-11-21T15:29:01;98907.41;;;9.80;69.17
6144;BME280;3103;49.492;8.474;2022-11-21T15:31:28;98896.72;;;9.65;69.63
6144;BME280;3103;49.492;8.474;2022-11-21T15:34:00;98890.25;;;9.86;69.47
6144;BME280;3103;49.492;8.474;2022-11-21T15:37:04;98878.44;;;9.82;69.75
6144;BME280;3103;49.492;8.474;2022-11-21T15:39:31;98866.41;;;9.74;69.72
6144;BME280;3103;49.492;8.474;2022-11-21T15:45:01;98839.59;;;9.74;69.93